Airfield :
LOGIN :

Register | Disclaimer

   EN    FR    IT 

 










Legend :    VFR   Marginal VFR   IFR   Intensive IFR   Very Intensive IFR
Visi :
Ceiling :
>= 8 km
>= 3000ft
5 to 8 km
1000 to 3000 ft
1500m to 5 km
500 to 1000 ft
800 to 1500m
200 to 500 ft
< 800m
< 200 ft
Symbols :   Thunderstorms  Fog  Heavy snow  Heavy precipitations  Wind > 20 kt
SIGMETs :     Misc.  Thunderstorms  Icing  Turbulence  Mountain Waves  Volcanic Ashes






- Airport Elevation : 42 ft
- IATA code : KGD


UMKK - Khrabrava - Kaliningrad

CURRENT METAR :
  • 260400Z 33003MPS 2200 BR BKN001 09/09 Q1030 R24/CLRD95 NOSIG RMK QBB050 OBST OBSC QFE772/1029

EXPIRED METARs :
  • 260330Z 33003MPS 3100 1400SW BR BKN001 09/09 Q1030 R24/CLRD95 NOSIG RMK QBB050 OBST OBSC QFE771/1029
  • 260300Z 32003MPS 2500 1300E R24/1300D BR OVC002 09/09 Q1030 R24/CLRD95 NOSIG RMK QBB060 OBST OBSC QFE771/1028
  • 260230Z 33003MPS 4200 1600SW BR OVC002 09/09 Q1029 R24/95D NOSIG RMK QBB060 OBST OBSC QFE771/1028
  • 260200Z 33004MPS 2300 BR OVC002 09/09 Q1029 R24/CLRD95 NOSIG RMK QBB060 OBST OBSC QFE771/1028
  • 260130Z 34004MPS 2600 BR OVC002 09/09 Q1029 R24/CLRD95 NOSIG RMK QBB060 OBST OBSC QFE771/1028

TAF TAF UMKK
Valid from the 26 at 03:00 until the 27 at 03:00 UTC


260159Z 2603/2703 34005G10MPS 2100 BR BKN002
TEMPO 2603/2606 36003MPS 0300 FG VV001
BECMG 2609/2611 6000 NSW FEW003 BKN011
BECMG 2612/2614 9999 SCT011
BECMG 2618/2620 32003G08MPS
TEMPO 2700/2703 0300 FG BKN003



MET'MAP, your aeronautical weather chart ! - Copyright ORBIFLY December 2007 - Disclaimer

ORBIFLY MET'MAP TEAM :

Programming & Development : Alexandra Zaïnal
Concept & original design : Baudouin d'Aumeries
Assistance for programming : Marc-Olivier Méhu
Technical & hardware support : Manuel Goepfert

Contact : metmap@orbifly.com




SOURCES & CREDITS :

   NOAA